createdAt,value
2023-04-15T21:02:42.587Z,8.64
2023-04-15T21:05:42.512Z,8.65
2023-04-15T21:08:42.524Z,8.64
2023-04-15T21:11:57.172Z,8.66
2023-04-15T21:14:42.567Z,8.62
2023-04-15T21:17:42.620Z,8.68
2023-04-15T21:20:42.598Z,8.66
2023-04-15T21:23:42.615Z,8.67
2023-04-15T21:26:42.632Z,8.61
2023-04-15T21:29:42.658Z,8.62
2023-04-15T21:32:42.702Z,8.63
2023-04-15T21:35:42.688Z,8.63
2023-04-15T21:38:42.787Z,8.6
2023-04-15T21:41:42.724Z,8.58
2023-04-15T21:44:42.748Z,8.56
2023-04-15T21:47:56.933Z,8.55
2023-04-15T21:50:42.789Z,8.54
2023-04-15T21:53:42.813Z,8.55
2023-04-15T21:56:42.832Z,8.58
2023-04-15T21:59:42.856Z,8.55
2023-04-15T22:02:42.905Z,8.55
2023-04-15T22:05:42.901Z,8.55
2023-04-15T22:08:52.966Z,8.53
2023-04-15T22:11:42.954Z,8.54
2023-04-15T22:14:42.971Z,8.5
2023-04-15T22:17:42.993Z,8.52
2023-04-15T22:20:43.019Z,8.54
2023-04-15T22:23:43.027Z,8.56
2023-04-15T22:26:43.044Z,8.58
2023-04-15T22:29:43.074Z,8.54
2023-04-15T22:32:43.133Z,8.55
2023-04-15T22:35:43.153Z,8.54
2023-04-15T22:38:43.130Z,8.57
2023-04-15T22:41:43.160Z,8.56
2023-04-15T22:44:43.255Z,8.55
2023-04-15T22:47:43.265Z,8.54
2023-04-15T22:50:43.237Z,8.53
2023-04-15T22:53:43.238Z,8.51
2023-04-15T22:56:43.262Z,8.5
2023-04-15T22:59:43.287Z,8.48
2023-04-15T23:02:43.352Z,8.47
2023-04-15T23:05:43.337Z,8.48
2023-04-15T23:08:43.358Z,8.48
2023-04-15T23:11:43.379Z,8.47
2023-04-15T23:14:43.411Z,8.46
2023-04-15T23:17:43.455Z,8.44
2023-04-15T23:20:43.454Z,8.39
2023-04-15T23:23:43.477Z,8.4
2023-04-15T23:26:43.499Z,8.39
2023-04-15T23:29:43.529Z,8.38
2023-04-15T23:32:43.607Z,8.38
2023-04-15T23:35:43.569Z,8.42
2023-04-15T23:38:43.596Z,8.44
2023-04-15T23:41:43.633Z,8.4
2023-04-15T23:44:43.659Z,8.42
2023-04-15T23:47:43.685Z,8.44
2023-04-15T23:50:43.704Z,8.38
2023-04-15T23:53:43.763Z,8.4
2023-04-15T23:56:43.764Z,8.41
2023-04-15T23:59:43.768Z,8.4
